createdAt,value
2022-11-15T00:00:29.126Z,4.70
2022-11-15T00:02:55.792Z,5.03
2022-11-15T00:05:21.899Z,4.80
2022-11-15T00:07:55.775Z,4.10
2022-11-15T00:10:22.256Z,4.30
2022-11-15T00:12:48.266Z,4.40
2022-11-15T00:15:14.283Z,4.67
2022-11-15T00:17:40.269Z,4.90
2022-11-15T00:20:07.000Z,3.80
2022-11-15T00:22:33.589Z,3.90
2022-11-15T00:24:59.624Z,4.23
2022-11-15T00:27:25.821Z,5.37
2022-11-15T00:29:51.830Z,4.20
2022-11-15T00:32:17.896Z,4.77
2022-11-15T00:34:43.925Z,4.50
2022-11-15T00:37:09.978Z,4.50
2022-11-15T00:39:36.027Z,4.50
2022-11-15T00:42:02.118Z,4.40
2022-11-15T00:44:28.147Z,4.60
2022-11-15T00:46:54.275Z,4.63
2022-11-15T00:49:20.302Z,5.30
2022-11-15T00:51:46.328Z,5.00
2022-11-15T00:54:12.343Z,4.20
2022-11-15T00:56:38.368Z,4.73
2022-11-15T00:59:04.368Z,4.70
2022-11-15T01:01:30.453Z,4.80
2022-11-15T01:04:01.048Z,5.20
2022-11-15T01:06:27.416Z,4.50
2022-11-15T01:08:53.431Z,4.50
2022-11-15T01:11:19.476Z,4.80
2022-11-15T01:13:45.494Z,5.00
2022-11-15T01:16:18.581Z,4.60
2022-11-15T01:18:45.475Z,4.30
2022-11-15T01:21:16.976Z,4.43
2022-11-15T01:23:43.617Z,4.10
2022-11-15T01:26:12.904Z,4.50
2022-11-15T01:28:40.907Z,4.60
2022-11-15T01:31:16.546Z,4.20
2022-11-15T01:33:42.647Z,4.70
2022-11-15T01:36:12.647Z,4.20
2022-11-15T01:38:38.716Z,4.20
2022-11-15T01:41:05.011Z,3.90
2022-11-15T01:43:36.145Z,4.30
2022-11-15T01:46:05.788Z,4.43
2022-11-15T01:48:35.395Z,4.00
2022-11-15T01:51:04.305Z,4.60
2022-11-15T01:53:32.203Z,3.97
2022-11-15T01:55:58.958Z,4.70
2022-11-15T01:58:25.241Z,4.30
2022-11-15T02:00:52.122Z,3.93
2022-11-15T02:03:18.235Z,4.40
2022-11-15T02:05:44.565Z,4.53
2022-11-15T02:08:20.033Z,5.07
2022-11-15T02:10:49.107Z,4.77
2022-11-15T02:13:16.787Z,4.40
2022-11-15T02:15:59.089Z,5.33
2022-11-15T02:18:34.158Z,4.17
2022-11-15T02:21:15.606Z,4.50
2022-11-15T02:23:47.551Z,5.37
2022-11-15T02:26:35.537Z,4.70
2022-11-15T02:29:14.506Z,5.37
2022-11-15T02:31:59.199Z,4.43
2022-11-15T02:34:43.782Z,4.50
2022-11-15T02:37:22.408Z,5.20
2022-11-15T02:40:14.894Z,5.63
2022-11-15T02:43:08.159Z,5.70
2022-11-15T02:45:39.813Z,4.87
2022-11-15T02:48:06.628Z,5.00
2022-11-15T02:50:33.261Z,5.40
2022-11-15T02:52:59.350Z,5.20
2022-11-15T02:55:36.783Z,5.30
2022-11-15T02:58:14.846Z,5.83
2022-11-15T03:01:04.201Z,5.20
2022-11-15T03:03:49.009Z,5.00
2022-11-15T03:06:20.483Z,5.50
2022-11-15T03:08:52.310Z,4.67
2022-11-15T03:11:20.303Z,4.97
2022-11-15T03:13:52.207Z,4.70
2022-11-15T03:16:30.047Z,4.63
2022-11-15T03:19:01.026Z,5.40
2022-11-15T03:21:28.864Z,4.70
2022-11-15T03:23:56.035Z,4.10
2022-11-15T03:26:23.780Z,5.23
2022-11-15T03:28:53.727Z,4.10
2022-11-15T03:31:38.911Z,4.80
2022-11-15T03:34:06.127Z,4.97
2022-11-15T03:36:33.378Z,5.40
2022-11-15T03:39:02.845Z,4.80
2022-11-15T03:41:36.854Z,4.00
2022-11-15T03:44:44.313Z,4.90
2022-11-15T03:47:14.700Z,4.20
2022-11-15T03:49:45.136Z,4.37
2022-11-15T03:52:11.458Z,3.87
2022-11-15T03:54:48.317Z,4.23
2022-11-15T03:57:14.349Z,4.57
2022-11-15T03:59:40.455Z,4.40
2022-11-15T04:02:06.476Z,4.30
2022-11-15T04:04:32.492Z,4.37
2022-11-15T04:06:58.624Z,3.83
2022-11-15T04:09:24.674Z,4.23
2022-11-15T04:11:50.691Z,3.90
2022-11-15T04:14:16.699Z,4.40
2022-11-15T04:16:44.076Z,4.50
2022-11-15T04:19:28.593Z,4.20
2022-11-15T04:22:13.042Z,4.07
2022-11-15T04:24:39.040Z,4.20
2022-11-15T04:27:05.118Z,4.30
2022-11-15T04:29:36.850Z,4.40
2022-11-15T04:32:04.897Z,4.53
2022-11-15T04:34:31.019Z,4.33
2022-11-15T04:37:12.051Z,4.40
2022-11-15T04:39:39.073Z,4.17
2022-11-15T04:42:05.369Z,4.20
2022-11-15T04:44:31.443Z,4.13
2022-11-15T04:46:57.512Z,3.90
2022-11-15T04:49:23.572Z,3.93
2022-11-15T04:51:49.773Z,4.00
2022-11-15T04:54:15.970Z,4.20
2022-11-15T04:56:42.040Z,4.40
2022-11-15T04:59:08.141Z,3.83
2022-11-15T05:01:34.294Z,4.13
2022-11-15T05:04:19.472Z,3.70
2022-11-15T05:06:47.295Z,3.40
2022-11-15T05:09:14.125Z,4.17
2022-11-15T05:11:40.597Z,3.97
2022-11-15T05:14:06.615Z,3.93
2022-11-15T05:16:32.673Z,3.60
2022-11-15T05:18:58.712Z,3.30
2022-11-15T05:21:24.748Z,3.80
2022-11-15T05:23:50.767Z,4.10
2022-11-15T05:26:18.031Z,5.73
2022-11-15T05:28:44.131Z,4.40
2022-11-15T05:31:12.405Z,3.73
2022-11-15T05:33:39.848Z,3.90
2022-11-15T05:36:26.304Z,5.50
2022-11-15T05:38:52.359Z,5.00
2022-11-15T05:41:21.500Z,3.80
2022-11-15T05:43:49.030Z,4.13
2022-11-15T05:46:15.132Z,4.20
2022-11-15T05:48:44.232Z,3.97
2022-11-15T05:51:10.265Z,16.03
2022-11-15T05:53:36.723Z,8.20
2022-11-15T05:56:04.053Z,4.17
2022-11-15T05:58:32.564Z,4.00
2022-11-15T06:00:59.307Z,4.10
2022-11-15T06:03:25.349Z,3.73
2022-11-15T06:05:51.358Z,3.93
2022-11-15T06:08:17.439Z,4.33
2022-11-15T06:10:43.499Z,3.67
2022-11-15T06:13:09.514Z,3.83
2022-11-15T06:15:35.537Z,4.20
2022-11-15T06:18:01.756Z,3.77
2022-11-15T06:20:29.298Z,3.87
2022-11-15T06:22:59.332Z,4.20
2022-11-15T06:25:26.251Z,4.07
2022-11-15T06:27:56.157Z,3.43
2022-11-15T06:30:23.863Z,3.90
2022-11-15T06:32:49.882Z,3.90
2022-11-15T06:35:16.083Z,3.97
2022-11-15T06:37:42.367Z,3.87
2022-11-15T06:40:10.029Z,4.00
2022-11-15T06:42:36.374Z,3.30
2022-11-15T06:45:03.200Z,4.20
2022-11-15T06:47:29.194Z,3.17
2022-11-15T06:49:55.228Z,3.90
2022-11-15T06:52:22.006Z,3.97
2022-11-15T06:54:48.104Z,3.43
2022-11-15T06:57:14.156Z,4.90
2022-11-15T06:59:40.793Z,4.90
2022-11-15T07:02:14.487Z,4.07
2022-11-15T07:04:40.649Z,4.20
2022-11-15T07:07:06.892Z,4.00
2022-11-15T07:09:33.010Z,3.50
2022-11-15T07:12:03.201Z,3.97
2022-11-15T07:14:32.325Z,4.30
2022-11-15T07:16:58.413Z,3.83
2022-11-15T07:19:24.466Z,4.30
2022-11-15T07:21:50.474Z,4.33
2022-11-15T07:24:16.606Z,4.23
2022-11-15T07:26:42.696Z,3.23
2022-11-15T07:29:08.953Z,4.00
2022-11-15T07:31:35.028Z,3.53
2022-11-15T07:34:01.108Z,4.23
2022-11-15T07:36:27.115Z,4.10
2022-11-15T07:38:53.114Z,3.60
2022-11-15T07:41:19.154Z,4.17
2022-11-15T07:43:45.178Z,4.23
2022-11-15T07:46:11.682Z,3.83
2022-11-15T07:48:44.566Z,3.70
2022-11-15T07:51:14.423Z,6.83
2022-11-15T07:53:41.568Z,4.50
2022-11-15T07:56:08.017Z,4.90
2022-11-15T07:58:34.194Z,3.70
2022-11-15T08:01:04.526Z,4.17
2022-11-15T08:03:30.887Z,3.90
2022-11-15T08:05:57.111Z,4.00
2022-11-15T08:08:23.145Z,4.50
2022-11-15T08:10:49.237Z,3.63
2022-11-15T08:13:15.727Z,4.30
2022-11-15T08:15:42.283Z,4.60
2022-11-15T08:18:14.028Z,4.30
2022-11-15T08:20:42.916Z,4.40
2022-11-15T08:23:11.363Z,4.67
2022-11-15T08:25:37.509Z,4.10
2022-11-15T08:28:06.180Z,3.57
2022-11-15T08:30:36.668Z,4.53
2022-11-15T08:33:02.802Z,4.40
2022-11-15T08:35:29.528Z,4.70
2022-11-15T08:37:55.856Z,5.80
2022-11-15T08:40:22.322Z,4.83
2022-11-15T08:42:48.667Z,4.00
2022-11-15T08:45:15.184Z,4.10
2022-11-15T08:47:41.275Z,4.47
2022-11-15T08:50:07.761Z,3.43
2022-11-15T08:52:33.938Z,4.17
2022-11-15T08:54:59.987Z,3.90
2022-11-15T08:57:29.340Z,4.03
2022-11-15T08:59:55.631Z,4.10
2022-11-15T09:02:21.675Z,4.03
2022-11-15T09:04:48.380Z,3.90
2022-11-15T09:07:14.624Z,3.10
2022-11-15T09:09:40.777Z,3.00
2022-11-15T09:12:07.772Z,3.60
2022-11-15T09:14:34.145Z,3.40
2022-11-15T09:17:00.291Z,3.50
2022-11-15T09:19:26.399Z,3.43
2022-11-15T09:21:52.818Z,3.27
2022-11-15T09:24:19.299Z,3.30
2022-11-15T09:26:45.828Z,3.60
2022-11-15T09:29:11.884Z,5.47
2022-11-15T09:31:37.904Z,3.70
2022-11-15T09:34:03.975Z,3.20
2022-11-15T09:36:30.053Z,3.30
2022-11-15T09:38:58.308Z,3.80
2022-11-15T09:41:34.113Z,3.50
2022-11-15T09:44:25.724Z,3.73
2022-11-15T09:47:16.985Z,4.17
2022-11-15T09:49:43.137Z,3.83
2022-11-15T09:52:19.932Z,3.50
2022-11-15T09:54:53.877Z,3.50
2022-11-15T09:57:23.617Z,3.63
2022-11-15T09:59:49.597Z,3.97
2022-11-15T10:02:30.890Z,10.53
2022-11-15T10:04:58.947Z,4.00
2022-11-15T10:07:56.374Z,3.67
2022-11-15T10:10:28.177Z,4.17
2022-11-15T10:12:54.432Z,3.67
2022-11-15T10:15:22.952Z,3.97
2022-11-15T10:18:06.426Z,3.13
2022-11-15T10:20:50.102Z,3.30
2022-11-15T10:23:20.167Z,3.40
2022-11-15T10:25:46.207Z,3.97
2022-11-15T10:28:16.267Z,3.70
2022-11-15T10:30:47.891Z,2.93
2022-11-15T10:33:21.333Z,3.43
2022-11-15T10:35:47.484Z,4.00
2022-11-15T10:38:13.701Z,4.00
2022-11-15T10:40:41.134Z,3.77
2022-11-15T10:43:10.235Z,3.47
2022-11-15T10:45:37.130Z,3.83
2022-11-15T10:48:12.311Z,3.80
2022-11-15T10:50:39.728Z,3.60
2022-11-15T10:53:15.898Z,3.50
2022-11-15T10:55:47.224Z,3.60
2022-11-15T10:58:27.255Z,3.17
2022-11-15T11:00:53.774Z,3.50
2022-11-15T11:03:39.773Z,3.40
2022-11-15T11:06:11.892Z,2.93
2022-11-15T11:08:38.212Z,3.33
2022-11-15T11:11:05.321Z,3.10
2022-11-15T11:13:33.815Z,2.80
2022-11-15T11:15:59.866Z,2.83
2022-11-15T11:18:31.736Z,3.20
2022-11-15T11:21:00.696Z,2.83
2022-11-15T11:24:08.387Z,3.30
2022-11-15T11:26:51.693Z,2.60
2022-11-15T11:29:39.258Z,2.83
2022-11-15T11:32:26.683Z,2.57
2022-11-15T11:35:10.493Z,2.67
2022-11-15T11:38:10.598Z,2.70
2022-11-15T11:40:56.970Z,3.00
2022-11-15T11:43:46.269Z,2.43
2022-11-15T11:46:38.049Z,2.50
2022-11-15T11:49:19.409Z,2.53
2022-11-15T11:52:08.132Z,2.93
2022-11-15T11:54:52.874Z,3.50
2022-11-15T11:58:02.450Z,2.07
2022-11-15T12:00:29.434Z,2.20
2022-11-15T12:03:07.670Z,2.20
2022-11-15T12:05:53.493Z,1.90
2022-11-15T12:08:49.656Z,2.40
2022-11-15T12:11:34.487Z,1.70
2022-11-15T12:14:02.284Z,2.00
2022-11-15T12:16:32.523Z,2.23
2022-11-15T12:19:03.592Z,1.77
2022-11-15T12:21:41.465Z,1.80
2022-11-15T12:24:14.186Z,2.03
2022-11-15T12:26:50.572Z,2.03
2022-11-15T12:29:26.033Z,1.73
2022-11-15T12:31:56.777Z,1.80
2022-11-15T12:34:22.814Z,1.90
2022-11-15T12:36:50.680Z,1.70
2022-11-15T12:39:17.726Z,1.80
2022-11-15T12:41:55.819Z,1.50
2022-11-15T12:44:30.877Z,2.43
2022-11-15T12:46:56.853Z,1.80
2022-11-15T12:49:25.934Z,1.80
2022-11-15T12:52:05.445Z,1.63
2022-11-15T12:54:40.854Z,1.90
2022-11-15T12:57:06.949Z,1.50
2022-11-15T13:00:02.540Z,2.00
2022-11-15T13:02:40.281Z,1.77
2022-11-15T13:05:36.116Z,2.10
2022-11-15T13:08:02.323Z,1.47
2022-11-15T13:10:32.670Z,1.90
2022-11-15T13:13:01.697Z,1.90
2022-11-15T13:15:42.617Z,3.80
2022-11-15T13:18:40.090Z,2.20
2022-11-15T13:21:46.559Z,2.00
2022-11-15T13:24:14.390Z,2.80
2022-11-15T13:26:40.557Z,2.20
2022-11-15T13:29:15.831Z,1.67
2022-11-15T13:31:43.796Z,1.97
2022-11-15T13:37:28.399Z,2.40
2022-11-15T13:39:54.410Z,2.37
2022-11-15T13:42:21.246Z,2.57
2022-11-15T13:44:59.604Z,2.60
2022-11-15T13:47:29.935Z,2.10
2022-11-15T13:50:01.133Z,2.13
2022-11-15T13:52:31.395Z,2.40
2022-11-15T13:55:03.530Z,2.13
2022-11-15T13:57:51.496Z,2.10
2022-11-15T14:00:43.941Z,2.37
2022-11-15T14:03:27.940Z,2.43
2022-11-15T14:06:13.449Z,2.23
2022-11-15T14:08:40.729Z,2.07
2022-11-15T14:11:17.923Z,2.10
2022-11-15T14:14:12.336Z,2.20
2022-11-15T14:16:43.850Z,2.17
2022-11-15T14:19:13.030Z,2.00
2022-11-15T14:22:09.085Z,2.57
2022-11-15T14:24:36.129Z,2.50
2022-11-15T14:27:21.707Z,2.17
2022-11-15T14:29:48.859Z,2.63
2022-11-15T14:32:17.955Z,2.30
2022-11-15T14:34:44.357Z,2.47
2022-11-15T14:37:21.354Z,2.30
2022-11-15T14:39:47.400Z,2.53
2022-11-15T14:42:13.447Z,2.40
2022-11-15T14:44:42.287Z,2.30
2022-11-15T14:47:11.759Z,3.00
2022-11-15T14:49:37.809Z,2.67
2022-11-15T14:52:11.367Z,3.10
2022-11-15T14:54:37.386Z,3.03
2022-11-15T14:57:03.445Z,2.77
2022-11-15T14:59:29.446Z,3.50
2022-11-15T15:01:55.690Z,2.60
2022-11-15T15:04:21.911Z,2.70
2022-11-15T15:06:48.009Z,2.87
2022-11-15T15:09:14.103Z,2.70
2022-11-15T15:11:40.205Z,3.17
2022-11-15T15:14:06.374Z,2.77
2022-11-15T15:16:32.457Z,3.37
2022-11-15T15:18:58.480Z,2.97
2022-11-15T15:21:33.620Z,3.50
2022-11-15T15:24:03.279Z,3.73
2022-11-15T15:26:29.435Z,4.50
2022-11-15T15:28:55.588Z,5.40
2022-11-15T15:31:21.594Z,4.03
2022-11-15T15:33:47.707Z,4.10
2022-11-15T15:36:14.915Z,4.40
2022-11-15T15:38:41.639Z,4.57
2022-11-15T15:41:15.234Z,3.90
2022-11-15T15:43:41.336Z,3.20
2022-11-15T15:46:12.305Z,3.70
2022-11-15T15:48:39.769Z,4.33
2022-11-15T15:51:14.066Z,4.37
2022-11-15T15:53:41.659Z,3.90
2022-11-15T15:56:08.500Z,4.27
2022-11-15T15:58:35.223Z,4.10
2022-11-15T16:01:01.821Z,4.23
2022-11-15T16:03:27.937Z,4.67
2022-11-15T16:05:54.341Z,5.13
2022-11-15T16:08:22.667Z,4.30
2022-11-15T16:10:49.172Z,4.47
2022-11-15T16:13:15.565Z,4.57
2022-11-15T16:15:42.622Z,4.50
2022-11-15T16:18:15.762Z,4.60
2022-11-15T16:20:44.638Z,4.63
2022-11-15T16:23:13.306Z,4.07
2022-11-15T16:25:46.334Z,4.87
2022-11-15T16:28:32.733Z,4.73
2022-11-15T16:31:05.055Z,4.80
2022-11-15T16:33:31.826Z,4.77
2022-11-15T16:35:58.177Z,3.83
2022-11-15T16:38:24.273Z,3.97
2022-11-15T16:40:50.352Z,3.87
2022-11-15T16:43:16.596Z,3.40
2022-11-15T16:45:42.737Z,3.73
2022-11-15T16:48:21.242Z,3.23
2022-11-15T16:50:47.302Z,2.90
2022-11-15T16:53:13.482Z,3.37
2022-11-15T16:55:39.537Z,3.30
2022-11-15T16:58:05.768Z,2.83
2022-11-15T17:00:31.893Z,3.43
2022-11-15T17:02:58.450Z,4.20
2022-11-15T17:05:26.649Z,4.63
2022-11-15T17:07:53.537Z,4.50
2022-11-15T17:10:21.512Z,4.47
2022-11-15T17:12:47.710Z,4.43
2022-11-15T17:15:13.805Z,4.80
2022-11-15T17:17:40.174Z,4.37
2022-11-15T17:20:10.478Z,4.33
2022-11-15T17:22:37.017Z,3.57
2022-11-15T17:25:03.672Z,3.93
2022-11-15T17:27:30.704Z,3.80
2022-11-15T17:29:56.863Z,3.80
2022-11-15T17:32:23.054Z,4.33
2022-11-15T17:34:49.065Z,3.90
2022-11-15T17:37:15.087Z,8.30
2022-11-15T17:39:41.122Z,5.23
2022-11-15T17:42:07.265Z,10.40
2022-11-15T17:44:33.293Z,4.00
2022-11-15T17:46:59.299Z,3.80
2022-11-15T17:49:25.308Z,3.80
2022-11-15T17:51:52.035Z,4.20
2022-11-15T17:54:18.053Z,3.43
2022-11-15T17:56:44.079Z,3.87
2022-11-15T17:59:14.764Z,3.97
2022-11-15T18:01:40.945Z,3.83
2022-11-15T18:04:08.250Z,4.43
2022-11-15T18:06:35.525Z,4.10
2022-11-15T18:09:02.557Z,4.03
2022-11-15T18:11:35.138Z,3.73
2022-11-15T18:14:03.138Z,4.03
2022-11-15T18:16:30.929Z,4.00
2022-11-15T18:18:57.651Z,4.80
2022-11-15T18:21:26.270Z,4.50
2022-11-15T18:23:54.578Z,4.20
2022-11-15T18:26:26.760Z,4.73
2022-11-15T18:28:55.617Z,5.50
2022-11-15T18:31:24.198Z,5.00
2022-11-15T18:33:51.109Z,5.37
2022-11-15T18:36:19.692Z,6.50
2022-11-15T18:38:46.017Z,7.10
2022-11-15T18:41:18.705Z,6.13
2022-11-15T18:43:44.878Z,7.20
2022-11-15T18:46:13.411Z,6.77
2022-11-15T18:48:41.143Z,6.90
2022-11-15T18:51:09.203Z,6.43
2022-11-15T18:53:36.140Z,7.73
2022-11-15T18:56:04.138Z,8.53
2022-11-15T18:58:31.472Z,7.10
2022-11-15T19:01:02.397Z,7.13
2022-11-15T19:03:33.607Z,10.60
2022-11-15T19:06:04.325Z,9.40
2022-11-15T19:08:35.134Z,10.37
2022-11-15T19:11:06.781Z,10.97
2022-11-15T19:13:33.425Z,10.30
2022-11-15T19:16:00.680Z,13.23
2022-11-15T19:18:27.739Z,17.60
2022-11-15T19:20:56.997Z,15.93
2022-11-15T19:23:23.504Z,16.77
2022-11-15T19:25:54.545Z,15.40
2022-11-15T19:28:20.770Z,16.97
2022-11-15T19:30:46.806Z,17.13
2022-11-15T19:33:12.809Z,14.40
2022-11-15T19:35:38.889Z,13.57
2022-11-15T19:38:04.947Z,14.47
2022-11-15T19:40:32.581Z,17.37
2022-11-15T19:42:58.645Z,13.67
2022-11-15T19:45:25.000Z,12.73
2022-11-15T19:47:51.210Z,12.10
2022-11-15T19:50:17.451Z,11.90
2022-11-15T19:52:43.582Z,12.57
2022-11-15T19:55:09.755Z,12.20
2022-11-15T19:57:35.818Z,14.97
2022-11-15T20:00:07.094Z,15.20
2022-11-15T20:02:33.500Z,14.03
2022-11-15T20:04:59.556Z,14.20
2022-11-15T20:07:25.631Z,14.30
2022-11-15T20:09:51.782Z,15.00
2022-11-15T20:12:17.782Z,14.17
2022-11-15T20:14:45.239Z,13.93
2022-11-15T20:17:11.449Z,13.20
2022-11-15T20:19:37.525Z,15.40
2022-11-15T20:22:03.542Z,14.03
2022-11-15T20:24:30.622Z,15.83
2022-11-15T20:26:57.085Z,14.73
2022-11-15T20:29:23.223Z,15.30
2022-11-15T20:31:49.348Z,14.53
2022-11-15T20:34:15.367Z,14.47
2022-11-15T20:36:41.391Z,14.23
2022-11-15T20:39:07.422Z,21.50
2022-11-15T20:41:33.467Z,20.10
2022-11-15T20:44:02.167Z,14.80
2022-11-15T20:46:28.163Z,13.90
2022-11-15T20:48:54.262Z,12.00
2022-11-15T20:51:20.557Z,13.00
2022-11-15T20:53:47.090Z,13.23
2022-11-15T20:56:16.964Z,13.03
2022-11-15T20:58:44.968Z,13.23
2022-11-15T21:01:13.560Z,13.03
2022-11-15T21:03:39.972Z,14.20
2022-11-15T21:06:06.375Z,13.57
2022-11-15T21:08:52.486Z,15.50
2022-11-15T21:11:38.586Z,13.23
2022-11-15T21:14:08.941Z,13.20
2022-11-15T21:16:36.349Z,12.80
2022-11-15T21:19:02.414Z,13.43
2022-11-15T21:21:28.744Z,12.87
2022-11-15T21:23:54.773Z,12.90
2022-11-15T21:26:20.789Z,12.90
2022-11-15T21:28:46.802Z,12.20
2022-11-15T21:31:12.881Z,13.33
2022-11-15T21:33:38.953Z,12.10
2022-11-15T21:36:05.247Z,13.47
2022-11-15T21:38:31.720Z,13.30
2022-11-15T21:41:03.069Z,13.07
2022-11-15T21:43:29.097Z,12.60
2022-11-15T21:46:00.221Z,13.47
2022-11-15T21:48:27.518Z,13.60
2022-11-15T21:51:05.457Z,13.50
2022-11-15T21:53:32.123Z,13.13
2022-11-15T21:55:59.544Z,14.03
2022-11-15T21:58:26.312Z,13.87
2022-11-15T22:01:12.830Z,13.67
2022-11-15T22:03:39.388Z,14.17
2022-11-15T22:06:05.906Z,13.40
2022-11-15T22:08:32.419Z,13.70
2022-11-15T22:10:58.831Z,12.43
2022-11-15T22:13:25.489Z,13.53
2022-11-15T22:15:55.415Z,14.13
2022-11-15T22:18:26.570Z,15.53
2022-11-15T22:20:57.738Z,12.27
2022-11-15T22:23:24.916Z,11.30
2022-11-15T22:25:51.397Z,12.23
2022-11-15T22:28:17.870Z,11.90
2022-11-15T22:30:48.129Z,10.50
2022-11-15T22:33:15.312Z,10.97
2022-11-15T22:35:41.593Z,10.23
2022-11-15T22:38:08.171Z,9.27
2022-11-15T22:40:34.732Z,10.37
2022-11-15T22:43:01.205Z,9.90
2022-11-15T22:45:27.335Z,9.03
2022-11-15T22:47:53.442Z,9.50
2022-11-15T22:50:19.546Z,9.60
2022-11-15T22:52:45.651Z,9.07
2022-11-15T22:55:11.785Z,9.77
2022-11-15T22:57:38.503Z,9.30
2022-11-15T23:00:08.846Z,9.63
2022-11-15T23:02:38.025Z,11.17
2022-11-15T23:05:04.989Z,9.90
2022-11-15T23:07:31.709Z,10.60
2022-11-15T23:10:17.770Z,10.83
2022-11-15T23:13:03.274Z,9.10
2022-11-15T23:15:49.389Z,8.87
2022-11-15T23:18:15.468Z,8.63
2022-11-15T23:20:43.885Z,7.80
2022-11-15T23:23:11.017Z,8.13
2022-11-15T23:25:37.124Z,8.03
2022-11-15T23:28:04.441Z,7.60
2022-11-15T23:30:53.608Z,7.43
2022-11-15T23:33:38.495Z,7.90
2022-11-15T23:36:05.411Z,5.40
2022-11-15T23:38:36.672Z,6.70
2022-11-15T23:41:04.190Z,5.93
2022-11-15T23:43:30.739Z,6.27
2022-11-15T23:45:56.877Z,6.20
2022-11-15T23:48:22.956Z,6.20
2022-11-15T23:50:49.085Z,6.60
2022-11-15T23:53:15.378Z,7.57
2022-11-15T23:55:41.545Z,6.80
2022-11-15T23:58:07.773Z,6.33
